Time;durP1;ratioP1;P1;durP2;ratioP2;P2;SDS_P1;SDS_P2;PMS_P1;PMS_P2;Temp;Humidity;BMP_temperature;BMP_pressure;BME280_temperature;BME280_humidity;BME280_pressure;Samples;Min_cycle;Max_cycle;Signal;HPM_P1;HPM_P2
2022/07/23 00:02:55;;;;;;;28.67;20.00;;;;;;;;;;5090151;28;20043;-72
2022/07/23 00:05:59;;;;;;;26.98;19.50;;;;;;;;;;5091582;28;20047;-72
2022/07/23 00:09:04;;;;;;;25.58;19.65;;;;;;;;;;5090449;28;20046;-72
2022/07/23 00:12:08;;;;;;;26.58;18.45;;;;;;;;;;5090217;28;20043;-72
2022/07/23 00:15:12;;;;;;;23.88;18.02;;;;;;;;;;5091332;28;20047;-72
2022/07/23 00:18:17;;;;;;;21.17;17.88;;;;;;;;;;5090933;28;20050;-72
2022/07/23 00:21:22;;;;;;;26.15;18.45;;;;;;;;;;5090829;28;20043;-72
2022/07/23 00:24:26;;;;;;;29.05;19.40;;;;;;;;;;5090999;28;20051;-72
2022/07/23 00:27:30;;;;;;;27.67;20.27;;;;;;;;;;5090789;28;20051;-72
2022/07/23 00:30:35;;;;;;;27.60;20.27;;;;;;;;;;5078398;28;20522;-72
2022/07/23 00:33:39;;;;;;;31.00;19.40;;;;;;;;;;5091089;28;20387;-72
2022/07/23 00:36:43;;;;;;;31.67;21.52;;;;;;;;;;5090457;28;20047;-72
2022/07/23 00:39:48;;;;;;;28.35;20.13;;;;;;;;;;5089895;28;20039;-72
2022/07/23 00:42:52;;;;;;;29.05;20.92;;;;;;;;;;5089966;28;20035;-72
2022/07/23 00:45:56;;;;;;;30.38;21.55;;;;;;;;;;5090393;28;20040;-72
2022/07/23 00:49:01;;;;;;;23.08;20.02;;;;;;;;;;5090403;28;20043;-71
2022/07/23 00:52:06;;;;;;;25.23;19.25;;;;;;;;;;5090496;28;20043;-72
2022/07/23 00:55:11;;;;;;;24.45;19.73;;;;;;;;;;5089562;28;20395;-72
2022/07/23 00:58:16;;;;;;;26.92;18.70;;;;;;;;;;5093486;28;20055;-72
2022/07/23 01:01:21;;;;;;;25.02;18.95;;;;;;;;;;5094094;28;20043;-72
2022/07/23 01:04:25;;;;;;;27.63;19.10;;;;;;;;;;5094730;28;20051;-72
2022/07/23 01:07:30;;;;;;;24.13;18.33;;;;;;;;;;5093388;28;20054;-72
2022/07/23 01:10:34;;;;;;;27.05;17.80;;;;;;;;;;5093325;28;20514;-72
2022/07/23 01:13:41;;;;;;;23.52;17.83;;;;;;;;;;5093879;28;20039;-72
2022/07/23 01:16:47;;;;;;;26.90;17.63;;;;;;;;;;5093333;28;20043;-72
2022/07/23 01:19:51;;;;;;;24.33;16.88;;;;;;;;;;5094358;28;20051;-72
2022/07/23 01:22:55;;;;;;;24.67;17.65;;;;;;;;;;5093294;28;20039;-72
2022/07/23 01:26:00;;;;;;;19.98;16.42;;;;;;;;;;5093068;28;20301;-72
2022/07/23 01:29:06;;;;;;;24.55;16.98;;;;;;;;;;5093143;28;20047;-72
2022/07/23 01:32:10;;;;;;;23.88;16.55;;;;;;;;;;5093798;28;20043;-72
2022/07/23 01:35:14;;;;;;;25.02;16.58;;;;;;;;;;5093571;28;20043;-72
2022/07/23 01:38:19;;;;;;;23.15;16.80;;;;;;;;;;5092820;28;20062;-72
2022/07/23 01:41:24;;;;;;;23.17;16.23;;;;;;;;;;5092925;28;20396;-72
2022/07/23 01:44:29;;;;;;;20.10;15.38;;;;;;;;;;5081274;28;20309;-72
2022/07/23 01:47:33;;;;;;;28.35;16.25;;;;;;;;;;5092739;28;20047;-72
2022/07/23 01:50:37;;;;;;;25.77;16.08;;;;;;;;;;5092522;28;20051;-72
2022/07/23 01:53:58;;;;;;;;;;;;;;;;;;5093884;28;20035;-72
2022/07/23 01:57:02;;;;;;;26.23;17.25;;;;;;;;;;5080869;28;19923;-72
2022/07/23 02:00:08;;;;;;;20.48;14.65;;;;;;;;;;5092587;28;20055;-72
2022/07/23 02:03:18;;;;;;;21.23;14.95;;;;;;;;;;5081981;28;20047;-72
2022/07/23 02:06:23;;;;;;;24.13;15.68;;;;;;;;;;5092502;28;20056;-71
2022/07/23 02:09:28;;;;;;;19.98;15.13;;;;;;;;;;5079755;28;20051;-72
2022/07/23 02:12:32;;;;;;;17.42;14.38;;;;;;;;;;5092224;28;20051;-72
2022/07/23 02:15:37;;;;;;;20.02;13.95;;;;;;;;;;5080541;28;20051;-72
2022/07/23 02:18:41;;;;;;;20.60;15.25;;;;;;;;;;5092072;28;20071;-73
2022/07/23 02:21:46;;;;;;;20.60;14.48;;;;;;;;;;5093162;28;20043;-73
2022/07/23 02:24:50;;;;;;;24.10;14.23;;;;;;;;;;5091988;28;20043;-71
2022/07/23 02:27:55;;;;;;;21.88;14.38;;;;;;;;;;5092941;28;20042;-73
2022/07/23 02:30:59;;;;;;;16.15;13.77;;;;;;;;;;5092037;28;20392;-73
2022/07/23 02:34:03;;;;;;;21.15;14.40;;;;;;;;;;5092012;28;20043;-73
2022/07/23 02:37:08;;;;;;;18.30;13.77;;;;;;;;;;5091825;28;20047;-73
2022/07/23 02:40:13;;;;;;;17.55;14.05;;;;;;;;;;5091745;28;20511;-73
2022/07/23 02:43:20;;;;;;;18.08;15.85;;;;;;;;;;5091492;28;20039;-73
2022/07/23 02:46:24;;;;;;;16.67;14.77;;;;;;;;;;5091456;28;20043;-73
2022/07/23 02:49:28;;;;;;;18.02;14.95;;;;;;;;;;5091224;28;20043;-73
2022/07/23 02:52:33;;;;;;;19.17;15.23;;;;;;;;;;5091691;28;20062;-74
2022/07/23 02:55:37;;;;;;;26.85;14.63;;;;;;;;;;5091697;28;20114;-73
2022/07/23 02:58:41;;;;;;;23.65;14.40;;;;;;;;;;5092370;28;20055;-74
2022/07/23 03:01:46;;;;;;;26.10;15.23;;;;;;;;;;5079785;28;20054;-74
2022/07/23 03:04:50;;;;;;;26.20;16.02;;;;;;;;;;5091340;28;20055;-73
2022/07/23 03:07:54;;;;;;;18.58;15.32;;;;;;;;;;5092154;28;20046;-73
2022/07/23 03:10:58;;;;;;;19.60;15.48;;;;;;;;;;5091344;28;20062;-73
2022/07/23 03:14:03;;;;;;;22.67;15.50;;;;;;;;;;5091165;28;20047;-74
2022/07/23 03:17:07;;;;;;;19.77;16.83;;;;;;;;;;5090853;28;20047;-73
2022/07/23 03:20:12;;;;;;;21.80;16.35;;;;;;;;;;5090963;28;20058;-73
2022/07/23 03:23:17;;;;;;;22.05;16.10;;;;;;;;;;5090847;28;20031;-73
2022/07/23 03:26:25;;;;;;;20.88;16.63;;;;;;;;;;5079054;28;20043;-73
2022/07/23 03:29:30;;;;;;;21.63;16.48;;;;;;;;;;5090617;28;20046;-73
2022/07/23 03:32:35;;;;;;;19.77;15.93;;;;;;;;;;5090829;28;20039;-73
2022/07/23 03:35:39;;;;;;;24.00;16.05;;;;;;;;;;5090625;28;20399;-73
2022/07/23 03:38:54;;;;;;;19.85;15.73;;;;;;;;;;5090571;28;20055;-73
2022/07/23 03:41:59;;;;;;;22.90;16.73;;;;;;;;;;5090815;28;20035;-73
2022/07/23 03:45:04;;;;;;;20.70;16.42;;;;;;;;;;5090899;28;20043;-73
2022/07/23 03:48:10;;;;;;;20.85;16.38;;;;;;;;;;5090817;28;20470;-73
2022/07/23 03:51:14;;;;;;;23.55;16.75;;;;;;;;;;5090136;28;20055;-73
2022/07/23 03:54:19;;;;;;;26.95;18.55;;;;;;;;;;5090133;28;20039;-74
2022/07/23 03:57:24;;;;;;;22.70;17.98;;;;;;;;;;5090378;28;20039;-73
2022/07/23 04:00:28;;;;;;;20.15;17.42;;;;;;;;;;5090209;28;20047;-73
2022/07/23 04:03:33;;;;;;;24.50;18.10;;;;;;;;;;5091216;28;20051;-73
2022/07/23 04:06:37;;;;;;;24.73;17.30;;;;;;;;;;5090340;28;20050;-73
2022/07/23 04:09:42;;;;;;;22.40;17.40;;;;;;;;;;5078918;28;20039;-73
2022/07/23 04:12:46;;;;;;;27.70;18.40;;;;;;;;;;5091713;28;20051;-73
2022/07/23 04:15:51;;;;;;;20.13;17.92;;;;;;;;;;5091425;28;20043;-73
2022/07/23 04:18:56;;;;;;;27.20;18.38;;;;;;;;;;5090033;28;20531;-73
2022/07/23 04:22:01;;;;;;;28.20;19.88;;;;;;;;;;5090207;28;20090;-73
2022/07/23 04:25:05;;;;;;;26.73;19.00;;;;;;;;;;5090499;28;20047;-73
2022/07/23 04:28:10;;;;;;;22.65;18.80;;;;;;;;;;5091201;28;20039;-73
2022/07/23 04:31:14;;;;;;;22.70;20.05;;;;;;;;;;5091423;28;20047;-73
2022/07/23 04:34:18;;;;;;;29.65;20.65;;;;;;;;;;5095362;28;20058;-73
2022/07/23 04:37:23;;;;;;;31.95;19.35;;;;;;;;;;5094268;28;20070;-73
2022/07/23 04:40:28;;;;;;;33.40;21.58;;;;;;;;;;5094188;28;20051;-73
2022/07/23 04:43:33;;;;;;;28.95;21.30;;;;;;;;;;5082388;28;20043;-73
2022/07/23 04:46:38;;;;;;;29.15;21.92;;;;;;;;;;5082383;28;20039;-73
2022/07/23 04:49:46;;;;;;;33.42;22.27;;;;;;;;;;5093435;28;20412;-73
2022/07/23 04:52:51;;;;;;;34.35;22.40;;;;;;;;;;5093976;28;20042;-73
2022/07/23 04:55:55;;;;;;;30.08;20.75;;;;;;;;;;5093874;28;20055;-73
2022/07/23 04:59:00;;;;;;;35.00;22.08;;;;;;;;;;5093549;28;20399;-73
2022/07/23 05:02:04;;;;;;;30.05;23.35;;;;;;;;;;5093726;28;20039;-74
2022/07/23 05:05:09;;;;;;;41.42;23.60;;;;;;;;;;5093579;28;20055;-73
2022/07/23 05:08:13;;;;;;;48.42;23.77;;;;;;;;;;5093681;28;20042;-73
2022/07/23 05:11:20;;;;;;;52.53;22.80;;;;;;;;;;5093953;28;20047;-73
2022/07/23 05:14:25;;;;;;;49.33;24.20;;;;;;;;;;5093722;28;20415;-73
2022/07/23 05:17:29;;;;;;;48.47;21.70;;;;;;;;;;5093264;28;20051;-73
2022/07/23 05:20:34;;;;;;;54.72;21.95;;;;;;;;;;5093368;28;20051;-73
2022/07/23 05:23:38;;;;;;;52.47;21.27;;;;;;;;;;5093559;28;20047;-73
2022/07/23 05:26:42;;;;;;;53.55;20.90;;;;;;;;;;5093481;28;20067;-73
2022/07/23 05:29:47;;;;;;;45.30;20.10;;;;;;;;;;5081355;28;20106;-73
2022/07/23 05:32:51;;;;;;;46.88;20.85;;;;;;;;;;5094149;28;20407;-73
2022/07/23 05:36:00;;;;;;;44.22;20.95;;;;;;;;;;5081640;28;20039;-73
2022/07/23 05:39:06;;;;;;;30.92;18.95;;;;;;;;;;5092867;28;20527;-73
2022/07/23 05:42:14;;;;;;;39.60;21.38;;;;;;;;;;5092194;28;20039;-73
2022/07/23 05:45:19;;;;;;;26.73;19.15;;;;;;;;;;5092900;28;20043;-73
2022/07/23 05:48:23;;;;;;;32.20;20.83;;;;;;;;;;5092591;28;20396;-73
2022/07/23 05:51:38;;;;;;;37.22;22.33;;;;;;;;;;5092748;28;20510;-73
2022/07/23 05:54:43;;;;;;;44.40;22.40;;;;;;;;;;5092284;28;20039;-73
2022/07/23 05:57:47;;;;;;;46.92;21.83;;;;;;;;;;5092552;28;20411;-72
2022/07/23 06:00:52;;;;;;;53.38;24.23;;;;;;;;;;5093469;28;20063;-72
2022/07/23 06:03:56;;;;;;;41.22;21.90;;;;;;;;;;5092495;28;20051;-71
2022/07/23 06:07:05;;;;;;;46.50;21.10;;;;;;;;;;5093754;28;20039;-71
2022/07/23 06:10:09;;;;;;;37.83;21.95;;;;;;;;;;5092181;28;20043;-71
2022/07/23 06:13:14;;;;;;;30.33;18.23;;;;;;;;;;5093039;28;20518;-71
2022/07/23 06:16:19;;;;;;;39.47;17.58;;;;;;;;;;5092298;28;20051;-71
2022/07/23 06:19:24;;;;;;;36.33;16.15;;;;;;;;;;5092021;28;20055;-71
2022/07/23 06:22:29;;;;;;;28.10;14.68;;;;;;;;;;5092454;28;20104;-71
2022/07/23 06:25:33;;;;;;;20.90;11.57;;;;;;;;;;5091967;28;20450;-71
2022/07/23 06:28:38;;;;;;;16.70;9.88;;;;;;;;;;5091853;28;20035;-69
2022/07/23 06:31:43;;;;;;;15.27;10.30;;;;;;;;;;5092918;28;20071;-68
2022/07/23 06:34:47;;;;;;;19.20;11.13;;;;;;;;;;5092532;28;20051;-70
2022/07/23 06:37:51;;;;;;;14.48;10.40;;;;;;;;;;5092406;28;20047;-70
2022/07/23 06:40:56;;;;;;;24.05;11.15;;;;;;;;;;5091871;28;20051;-70
2022/07/23 06:44:00;;;;;;;16.05;10.55;;;;;;;;;;5091502;28;20043;-70
2022/07/23 06:47:07;;;;;;;13.75;10.15;;;;;;;;;;5091450;28;20051;-71
2022/07/23 06:50:12;;;;;;;16.33;10.10;;;;;;;;;;5090650;28;20055;-70
2022/07/23 06:53:16;;;;;;;18.38;10.82;;;;;;;;;;5092869;28;20059;-71
2022/07/23 06:56:20;;;;;;;16.95;10.43;;;;;;;;;;5091622;28;20043;-70
2022/07/23 06:59:25;;;;;;;13.30;9.98;;;;;;;;;;5092120;28;20537;-70
2022/07/23 07:02:29;;;;;;;14.65;9.18;;;;;;;;;;5092035;28;20047;-70
2022/07/23 07:05:33;;;;;;;19.50;9.65;;;;;;;;;;5091370;28;20035;-70
2022/07/23 07:08:38;;;;;;;13.90;8.95;;;;;;;;;;5092350;28;20039;-71
2022/07/23 07:11:42;;;;;;;17.27;9.30;;;;;;;;;;5091729;28;20039;-71
2022/07/23 07:14:46;;;;;;;12.10;8.80;;;;;;;;;;5092269;28;20522;-71
2022/07/23 07:17:50;;;;;;;13.93;9.27;;;;;;;;;;5091981;28;20118;-70
2022/07/23 07:20:55;;;;;;;13.82;9.38;;;;;;;;;;5092069;28;20051;-70
2022/07/23 07:23:59;;;;;;;16.35;10.23;;;;;;;;;;5091873;28;20388;-70
2022/07/23 07:27:03;;;;;;;12.80;9.50;;;;;;;;;;5092243;28;20063;-70
2022/07/23 07:30:08;;;;;;;13.38;8.82;;;;;;;;;;5091988;28;20043;-71
2022/07/23 07:33:12;;;;;;;17.60;10.13;;;;;;;;;;5091872;28;20046;-70
2022/07/23 07:36:17;;;;;;;13.02;9.75;;;;;;;;;;5091713;28;20051;-70
2022/07/23 07:39:21;;;;;;;15.07;9.48;;;;;;;;;;5091561;28;20055;-70
2022/07/23 07:42:26;;;;;;;12.18;8.80;;;;;;;;;;5091563;28;20039;-71
2022/07/23 07:45:30;;;;;;;14.70;9.75;;;;;;;;;;5091533;28;20062;-70
2022/07/23 07:48:34;;;;;;;14.02;8.82;;;;;;;;;;5091805;28;20043;-70
2022/07/23 07:51:39;;;;;;;15.65;8.65;;;;;;;;;;5091549;28;20055;-70
2022/07/23 07:54:43;;;;;;;17.02;8.95;;;;;;;;;;5091287;28;20046;-71
2022/07/23 07:57:48;;;;;;;10.93;8.65;;;;;;;;;;5091146;28;20047;-71
2022/07/23 08:00:52;;;;;;;13.82;8.57;;;;;;;;;;5091457;28;20047;-72
2022/07/23 08:03:57;;;;;;;15.00;8.63;;;;;;;;;;5091218;28;20499;-71
2022/07/23 08:07:01;;;;;;;13.68;7.72;;;;;;;;;;5090321;28;20055;-72
2022/07/23 08:10:06;;;;;;;20.67;7.95;;;;;;;;;;5090638;28;20047;-74
2022/07/23 08:13:13;;;;;;;14.95;9.32;;;;;;;;;;5091512;28;20051;-71
2022/07/23 08:16:17;;;;;;;11.43;8.52;;;;;;;;;;5091353;28;20047;-73
2022/07/23 08:19:22;;;;;;;15.02;8.88;;;;;;;;;;5091005;28;20047;-73
2022/07/23 08:22:41;;;;;;;12.68;7.97;;;;;;;;;;5091446;28;20053;-71
2022/07/23 08:25:46;;;;;;;9.82;7.63;;;;;;;;;;5091227;28;20043;-71
2022/07/23 08:28:51;;;;;;;12.70;8.75;;;;;;;;;;5091404;28;20484;-71
2022/07/23 08:31:55;;;;;;;12.90;8.75;;;;;;;;;;5090992;28;20043;-71
2022/07/23 08:34:59;;;;;;;10.88;8.48;;;;;;;;;;5091385;28;20043;-71
2022/07/23 08:38:05;;;;;;;15.27;9.13;;;;;;;;;;5090542;28;20059;-71
2022/07/23 08:41:10;;;;;;;14.68;8.52;;;;;;;;;;5089263;28;20063;-74
2022/07/23 08:44:16;;;;;;;13.73;9.10;;;;;;;;;;5089539;28;20055;-72
2022/07/23 08:47:21;;;;;;;17.58;10.23;;;;;;;;;;5090391;28;20035;-72
2022/07/23 08:50:25;;;;;;;13.68;9.02;;;;;;;;;;5090725;28;20055;-71
2022/07/23 08:53:32;;;;;;;11.90;9.10;;;;;;;;;;5090968;28;20047;-73
2022/07/23 08:56:36;;;;;;;10.07;8.65;;;;;;;;;;5090985;28;20043;-72
2022/07/23 08:59:41;;;;;;;7.90;6.95;;;;;;;;;;5090607;28;20055;-71
2022/07/23 09:02:47;;;;;;;7.88;7.07;;;;;;;;;;5090949;28;20368;-73
2022/07/23 09:05:52;;;;;;;11.00;7.25;;;;;;;;;;5090744;28;20040;-71
2022/07/23 09:08:56;;;;;;;9.52;7.15;;;;;;;;;;5089755;28;20044;-71
2022/07/23 09:12:06;;;;;;;8.95;7.18;;;;;;;;;;5090933;28;20044;-73
2022/07/23 09:15:11;;;;;;;12.10;7.45;;;;;;;;;;5090719;28;20484;-72
2022/07/23 09:18:16;;;;;;;14.13;7.47;;;;;;;;;;5091825;28;20059;-72
2022/07/23 09:21:28;;;;;;;9.35;7.82;;;;;;;;;;5094545;28;20519;-72
2022/07/23 09:24:32;;;;;;;10.93;7.65;;;;;;;;;;5093960;28;20040;-73
2022/07/23 09:27:55;;;;;;;8.65;6.53;;;;;;;;;;5094184;28;20051;-72
2022/07/23 09:30:59;;;;;;;15.60;7.80;;;;;;;;;;5094014;28;20032;-73
2022/07/23 09:34:08;;;;;;;9.80;7.55;;;;;;;;;;5093648;28;20052;-72
2022/07/23 09:37:13;;;;;;;13.00;7.50;;;;;;;;;;5094098;28;20381;-72
2022/07/23 09:40:18;;;;;;;9.75;7.18;;;;;;;;;;5093970;28;20051;-74
2022/07/23 09:43:28;;;;;;;9.93;7.18;;;;;;;;;;5093403;28;20028;-72
2022/07/23 09:46:33;;;;;;;12.73;7.65;;;;;;;;;;5094575;28;20040;-73
2022/07/23 09:49:37;;;;;;;14.25;7.57;;;;;;;;;;5095519;28;20047;-73
2022/07/23 09:52:49;;;;;;;12.02;7.40;;;;;;;;;;5094782;28;20071;-72
2022/07/23 09:55:58;;;;;;;14.10;7.05;;;;;;;;;;5095486;28;20444;-72
2022/07/23 09:59:05;;;;;;;13.07;6.33;;;;;;;;;;5094945;28;20059;-72
2022/07/23 10:02:11;;;;;;;9.32;6.45;;;;;;;;;;5094157;28;20043;-74
2022/07/23 10:05:32;;;;;;;10.35;6.50;;;;;;;;;;5096020;28;20036;-72
2022/07/23 10:08:57;;;;;;;9.13;6.53;;;;;;;;;;5093922;28;20043;-73
2022/07/23 10:15:40;;;;;;;9.95;6.40;;;;;;;;;;5096699;28;20046;-71
2022/07/23 10:18:44;;;;;;;10.63;6.40;;;;;;;;;;5097067;28;20524;-73
2022/07/23 10:21:51;;;;;;;9.60;6.78;;;;;;;;;;5098152;28;20039;-72
2022/07/23 10:25:10;;;;;;;10.32;6.88;;;;;;;;;;5099424;28;20032;-72
2022/07/23 10:28:27;;;;;;;10.40;6.60;;;;;;;;;;5095712;28;20055;-73
2022/07/23 10:31:41;;;;;;;9.07;6.72;;;;;;;;;;5093439;28;20043;-72
2022/07/23 10:34:51;;;;;;;10.48;5.97;;;;;;;;;;5093260;28;20040;-73
2022/07/23 10:37:55;;;;;;;;;;;;;;;;;;5093275;28;20046;-72
2022/07/23 10:41:04;;;;;;;7.55;5.75;;;;;;;;;;5093514;28;19919;-72
2022/07/23 10:44:10;;;;;;;8.80;6.60;;;;;;;;;;5092900;28;20036;-72
2022/07/23 10:47:43;;;;;;;10.27;5.63;;;;;;;;;;5092828;28;20036;-73
2022/07/23 10:51:06;;;;;;;10.55;6.43;;;;;;;;;;5092482;28;20051;-73
2022/07/23 10:54:22;;;;;;;6.82;6.13;;;;;;;;;;5092641;28;20062;-72
2022/07/23 10:57:26;;;;;;;10.63;6.10;;;;;;;;;;5092312;28;20036;-72
2022/07/23 11:00:32;;;;;;;22.25;7.03;;;;;;;;;;5092429;28;20047;-72
2022/07/23 11:03:37;;;;;;;12.60;6.40;;;;;;;;;;5092795;28;20047;-73
2022/07/23 11:06:51;;;;;;;9.55;7.07;;;;;;;;;;5091509;28;20226;-73
2022/07/23 11:09:55;;;;;;;10.35;6.65;;;;;;;;;;5092171;28;20757;-72
2022/07/23 11:13:19;;;;;;;8.23;5.90;;;;;;;;;;5092432;28;20495;-72
2022/07/23 11:16:24;;;;;;;8.38;6.00;;;;;;;;;;5092433;28;20040;-73
2022/07/23 11:19:28;;;;;;;12.70;6.35;;;;;;;;;;5091244;28;20052;-73
2022/07/23 11:22:39;;;;;;;11.23;7.28;;;;;;;;;;5091127;28;20039;-72
2022/07/23 11:25:44;;;;;;;12.73;6.82;;;;;;;;;;5091348;28;20396;-72
2022/07/23 11:28:49;;;;;;;14.45;6.70;;;;;;;;;;5091695;28;20129;-73
2022/07/23 11:31:57;;;;;;;7.60;6.10;;;;;;;;;;5092034;28;20055;-72
2022/07/23 11:35:01;;;;;;;12.57;6.20;;;;;;;;;;5091939;28;20032;-72
2022/07/23 11:38:05;;;;;;;6.55;5.95;;;;;;;;;;5092187;28;20046;-72
2022/07/23 11:41:10;;;;;;;7.68;5.30;;;;;;;;;;5090398;28;20405;-72
2022/07/23 11:44:29;;;;;;;6.43;5.82;;;;;;;;;;5090825;28;20036;-73
2022/07/23 11:47:35;;;;;;;11.38;6.15;;;;;;;;;;5091756;28;20361;-72
2022/07/23 11:50:39;;;;;;;9.48;6.03;;;;;;;;;;5091357;28;20055;-73
2022/07/23 11:53:45;;;;;;;8.00;5.78;;;;;;;;;;5091285;28;20032;-72
2022/07/23 11:56:56;;;;;;;9.13;5.45;;;;;;;;;;5091611;28;20366;-72
2022/07/23 12:00:06;;;;;;;8.85;5.25;;;;;;;;;;5091073;28;20385;-72
2022/07/23 12:03:16;;;;;;;13.85;5.88;;;;;;;;;;5090199;28;20036;-71
2022/07/23 12:06:20;;;;;;;6.60;5.75;;;;;;;;;;5090724;28;20047;-71
2022/07/23 12:09:25;;;;;;;12.77;5.45;;;;;;;;;;5090799;28;20036;-73
2022/07/23 12:12:36;;;;;;;17.35;5.70;;;;;;;;;;5091076;28;20043;-72
2022/07/23 12:15:45;;;;;;;8.30;5.60;;;;;;;;;;5091445;28;20051;-71
2022/07/23 12:18:51;;;;;;;8.90;5.13;;;;;;;;;;5090958;28;20044;-71
2022/07/23 12:21:55;;;;;;;10.45;5.00;;;;;;;;;;5091075;28;20036;-67
2022/07/23 12:24:59;;;;;;;13.77;5.03;;;;;;;;;;5091148;28;20047;-68
2022/07/23 12:28:03;;;;;;;8.05;5.10;;;;;;;;;;5091066;28;20044;-67
2022/07/23 12:31:07;;;;;;;7.22;5.00;;;;;;;;;;5091131;28;20040;-68
2022/07/23 12:34:15;;;;;;;12.43;5.28;;;;;;;;;;5090847;28;20029;-69
2022/07/23 12:37:27;;;;;;;13.65;5.43;;;;;;;;;;5090634;28;20507;-68
2022/07/23 12:40:34;;;;;;;6.88;4.45;;;;;;;;;;5091000;28;20059;-71
2022/07/23 12:43:41;;;;;;;22.48;5.63;;;;;;;;;;5090067;28;20036;-70
2022/07/23 12:46:49;;;;;;;12.57;4.95;;;;;;;;;;5091029;28;20471;-70
2022/07/23 12:49:54;;;;;;;7.15;4.88;;;;;;;;;;5090732;28;20520;-70
2022/07/23 12:53:24;;;;;;;11.57;4.97;;;;;;;;;;5093107;28;20040;-70
2022/07/23 12:56:28;;;;;;;;;;;;;;;;;;5095124;28;20039;-68
2022/07/23 12:59:32;;;;;;;15.27;4.85;;;;;;;;;;5094464;28;19923;-69
2022/07/23 13:02:46;;;;;;;8.30;5.00;;;;;;;;;;5094955;28;20039;-70
2022/07/23 13:05:50;;;;;;;7.03;5.22;;;;;;;;;;5094483;28;20484;-68
2022/07/23 13:08:54;;;;;;;6.68;5.20;;;;;;;;;;5094531;28;20043;-70
2022/07/23 13:12:00;;;;;;;12.18;5.38;;;;;;;;;;5094329;28;20028;-69
2022/07/23 13:15:06;;;;;;;12.90;5.15;;;;;;;;;;5094379;28;20039;-68
2022/07/23 13:18:10;;;;;;;7.43;4.72;;;;;;;;;;5094351;28;20110;-69
2022/07/23 13:21:14;;;;;;;11.10;4.90;;;;;;;;;;5094413;28;20048;-68
2022/07/23 13:24:19;;;;;;;9.60;4.88;;;;;;;;;;5094426;28;20039;-72
2022/07/23 13:27:23;;;;;;;7.63;5.10;;;;;;;;;;5093596;28;20075;-73
2022/07/23 13:30:28;;;;;;;7.70;4.95;;;;;;;;;;5093808;28;20036;-72
2022/07/23 13:33:32;;;;;;;7.38;5.13;;;;;;;;;;5093831;28;20479;-73
2022/07/23 13:36:37;;;;;;;7.35;5.18;;;;;;;;;;5093254;28;20032;-72
2022/07/23 13:39:41;;;;;;;10.75;5.30;;;;;;;;;;5091969;28;20044;-72
2022/07/23 13:42:45;;;;;;;8.35;4.90;;;;;;;;;;5091972;28;20046;-72
2022/07/23 13:45:51;;;;;;;10.60;4.53;;;;;;;;;;5091287;28;20484;-72
2022/07/23 13:48:55;;;;;;;12.27;4.97;;;;;;;;;;5091768;28;20047;-71
2022/07/23 13:51:59;;;;;;;7.65;5.22;;;;;;;;;;5092810;28;20522;-70
2022/07/23 13:55:05;;;;;;;8.18;4.95;;;;;;;;;;5093397;28;20036;-71
2022/07/23 13:58:10;;;;;;;10.27;5.50;;;;;;;;;;5093197;28;20036;-70
2022/07/23 14:01:14;;;;;;;9.88;4.72;;;;;;;;;;5093446;28;20062;-71
2022/07/23 14:04:18;;;;;;;8.27;4.90;;;;;;;;;;5092312;28;20040;-71
2022/07/23 14:07:23;;;;;;;13.02;8.32;;;;;;;;;;5092074;28;20044;-72
2022/07/23 14:10:27;;;;;;;9.07;5.30;;;;;;;;;;5092501;28;20047;-71
2022/07/23 14:13:31;;;;;;;7.80;4.82;;;;;;;;;;5091904;28;20256;-72
2022/07/23 14:16:35;;;;;;;6.18;5.22;;;;;;;;;;5093433;28;20040;-71
2022/07/23 14:19:40;;;;;;;7.10;5.07;;;;;;;;;;5093182;28;20044;-72
2022/07/23 14:22:44;;;;;;;10.18;5.15;;;;;;;;;;5092283;28;20036;-72
2022/07/23 14:25:49;;;;;;;8.75;5.30;;;;;;;;;;5091869;28;20551;-74
2022/07/23 14:28:53;;;;;;;10.30;4.97;;;;;;;;;;5092902;28;20388;-72
2022/07/23 14:31:58;;;;;;;6.95;5.07;;;;;;;;;;5092893;28;20031;-74
2022/07/23 14:35:02;;;;;;;7.38;5.05;;;;;;;;;;5092899;28;20040;-73
2022/07/23 14:38:06;;;;;;;7.35;4.75;;;;;;;;;;5092795;28;20036;-72
2022/07/23 14:41:11;;;;;;;10.10;5.10;;;;;;;;;;5092463;28;20044;-72
2022/07/23 14:44:15;;;;;;;5.18;4.68;;;;;;;;;;5092709;28;20043;-71
2022/07/23 14:47:20;;;;;;;8.57;4.95;;;;;;;;;;5092636;28;20036;-71
2022/07/23 14:50:24;;;;;;;7.43;4.55;;;;;;;;;;5092644;28;20044;-72
2022/07/23 14:53:29;;;;;;;8.32;4.68;;;;;;;;;;5092569;28;20040;-72
2022/07/23 14:56:33;;;;;;;6.85;5.05;;;;;;;;;;5092317;28;20480;-72
2022/07/23 14:59:37;;;;;;;9.13;5.35;;;;;;;;;;5092139;28;20052;-72
2022/07/23 15:02:42;;;;;;;6.88;4.95;;;;;;;;;;5092324;28;20037;-73
2022/07/23 15:05:46;;;;;;;7.38;4.90;;;;;;;;;;5092260;28;20255;-72
2022/07/23 15:08:50;;;;;;;7.63;4.40;;;;;;;;;;5092229;28;20036;-72
2022/07/23 15:11:54;;;;;;;9.07;4.95;;;;;;;;;;5092188;28;20040;-72
2022/07/23 15:14:59;;;;;;;7.15;4.47;;;;;;;;;;5092024;28;20036;-73
2022/07/23 15:18:03;;;;;;;6.88;4.65;;;;;;;;;;5091935;28;20048;-73
2022/07/23 15:21:08;;;;;;;9.27;5.07;;;;;;;;;;5092304;28;20052;-72
2022/07/23 15:24:12;;;;;;;12.18;5.15;;;;;;;;;;5091962;28;20476;-73
2022/07/23 15:27:17;;;;;;;10.10;4.85;;;;;;;;;;5092053;28;20042;-72
2022/07/23 15:30:24;;;;;;;14.13;4.90;;;;;;;;;;5092004;28;20051;-73
2022/07/23 15:33:29;;;;;;;6.07;4.60;;;;;;;;;;5092121;28;20039;-72
2022/07/23 15:36:33;;;;;;;8.27;4.63;;;;;;;;;;5092489;28;20358;-72
2022/07/23 15:39:37;;;;;;;8.00;4.47;;;;;;;;;;5091685;28;20048;-72
2022/07/23 15:42:42;;;;;;;8.32;5.47;;;;;;;;;;5091527;28;20032;-72
2022/07/23 15:45:46;;;;;;;9.23;4.53;;;;;;;;;;5091684;28;20044;-72
2022/07/23 15:48:51;;;;;;;6.43;4.43;;;;;;;;;;5091477;28;20039;-72
2022/07/23 15:51:55;;;;;;;10.88;4.72;;;;;;;;;;5091476;28;20400;-72
2022/07/23 15:54:59;;;;;;;9.25;4.32;;;;;;;;;;5091312;28;20051;-72
2022/07/23 15:58:04;;;;;;;8.90;4.63;;;;;;;;;;5091097;28;20040;-71
2022/07/23 16:01:08;;;;;;;7.18;4.65;;;;;;;;;;5091725;28;20040;-71
2022/07/23 16:04:12;;;;;;;10.65;4.32;;;;;;;;;;5090435;28;20480;-71
2022/07/23 16:07:17;;;;;;;6.97;4.30;;;;;;;;;;5091508;28;20043;-72
2022/07/23 16:10:22;;;;;;;5.40;3.40;;;;;;;;;;5091183;28;20487;-72
2022/07/23 16:13:26;;;;;;;6.75;4.53;;;;;;;;;;5091623;28;20039;-74
2022/07/23 16:16:31;;;;;;;13.02;5.03;;;;;;;;;;5091478;28;20032;-72
2022/07/23 16:19:35;;;;;;;9.95;3.70;;;;;;;;;;5090817;28;20054;-72
2022/07/23 16:22:40;;;;;;;9.55;4.70;;;;;;;;;;5090999;28;20032;-72
2022/07/23 16:25:44;;;;;;;10.38;4.28;;;;;;;;;;5089992;28;20032;-72
2022/07/23 16:28:49;;;;;;;5.63;4.00;;;;;;;;;;5094477;28;20054;-72
2022/07/23 16:31:53;;;;;;;5.88;4.30;;;;;;;;;;5095289;28;20036;-70
2022/07/23 16:34:58;;;;;;;7.97;4.38;;;;;;;;;;5095232;28;20040;-73
2022/07/23 16:38:03;;;;;;;7.97;4.00;;;;;;;;;;5095106;28;20032;-72
2022/07/23 16:41:08;;;;;;;4.82;3.70;;;;;;;;;;5094963;28;20052;-71
2022/07/23 16:44:12;;;;;;;7.00;4.25;;;;;;;;;;5093825;28;20032;-71
2022/07/23 16:47:19;;;;;;;5.82;4.72;;;;;;;;;;5094047;28;20040;-72
2022/07/23 16:50:23;;;;;;;8.43;4.13;;;;;;;;;;5094847;28;20044;-71
2022/07/23 16:53:27;;;;;;;6.53;4.28;;;;;;;;;;5094736;28;20327;-71
2022/07/23 16:56:32;;;;;;;9.88;4.45;;;;;;;;;;5094870;28;20036;-71
2022/07/23 16:59:37;;;;;;;10.15;4.65;;;;;;;;;;5093768;28;20044;-73
2022/07/23 17:02:41;;;;;;;9.45;4.47;;;;;;;;;;5094772;28;20498;-72
2022/07/23 17:05:46;;;;;;;8.27;4.05;;;;;;;;;;5094687;28;20048;-73
2022/07/23 17:08:50;;;;;;;10.43;6.50;;;;;;;;;;5094258;28;20028;-71
2022/07/23 17:11:55;;;;;;;18.70;9.60;;;;;;;;;;5094416;28;20047;-75
2022/07/23 17:14:59;;;;;;;11.88;4.90;;;;;;;;;;5094425;28;20050;-72
2022/07/23 17:18:04;;;;;;;8.98;4.55;;;;;;;;;;5094231;28;20043;-73
2022/07/23 17:21:08;;;;;;;10.27;5.05;;;;;;;;;;5094107;28;20036;-73
2022/07/23 17:24:12;;;;;;;14.00;5.07;;;;;;;;;;5094165;28;20047;-72
2022/07/23 17:27:17;;;;;;;9.35;5.00;;;;;;;;;;5093777;28;20051;-74
2022/07/23 17:30:22;;;;;;;13.27;4.80;;;;;;;;;;5093976;28;20032;-72
2022/07/23 17:33:26;;;;;;;10.65;5.57;;;;;;;;;;5093059;28;20059;-76
2022/07/23 17:36:30;;;;;;;10.05;4.80;;;;;;;;;;5092816;28;20468;-76
2022/07/23 17:39:35;;;;;;;12.80;5.32;;;;;;;;;;5093123;28;20059;-76
2022/07/23 17:42:39;;;;;;;10.00;5.53;;;;;;;;;;5092556;28;20047;-75
2022/07/23 17:45:43;;;;;;;11.18;5.47;;;;;;;;;;5094053;28;20474;-76
2022/07/23 17:48:48;;;;;;;13.57;5.60;;;;;;;;;;5093614;28;20043;-75
2022/07/23 17:51:52;;;;;;;6.18;4.68;;;;;;;;;;5094276;28;20047;-75
2022/07/23 17:54:57;;;;;;;11.63;5.65;;;;;;;;;;5093657;28;20044;-76
2022/07/23 17:58:01;;;;;;;13.80;6.25;;;;;;;;;;5093212;28;20043;-76
2022/07/23 18:01:06;;;;;;;15.10;6.70;;;;;;;;;;5093353;28;20047;-76
2022/07/23 18:04:13;;;;;;;12.68;6.38;;;;;;;;;;5093689;28;20043;-75
2022/07/23 18:07:17;;;;;;;14.30;6.00;;;;;;;;;;5094111;28;20039;-76
2022/07/23 18:10:21;;;;;;;9.85;5.63;;;;;;;;;;5093730;28;20043;-75
2022/07/23 18:13:26;;;;;;;15.75;6.00;;;;;;;;;;5093236;28;20036;-76
2022/07/23 18:16:30;;;;;;;10.13;5.80;;;;;;;;;;5093316;28;20058;-76
2022/07/23 18:19:34;;;;;;;9.32;5.93;;;;;;;;;;5093166;28;20062;-76